Time;durP1;ratioP1;P1;durP2;ratioP2;P2;SDS_P1;SDS_P2;PMS_P1;PMS_P2;Temp;Humidity;BMP_temperature;BMP_pressure;BME280_temperature;BME280_humidity;BME280_pressure;Samples;Min_cycle;Max_cycle;Signal;HPM_P1;HPM_P2
2022/10/31 00:02:18;;;;;;;8.90;5.55;;;;;;;;;;5121642;28;20054;-59
2022/10/31 00:08:19;;;;;;;8.32;5.05;;;;;;;;;;5115158;28;20062;-59
2022/10/31 00:14:14;;;;;;;9.80;5.38;;;;;;;;;;5127125;28;20024;-59
2022/10/31 00:16:49;;;;;;;8.23;5.30;;;;;;;;;;5144786;28;20050;-59
2022/10/31 00:19:31;;;;;;;10.10;5.30;;;;;;;;;;5146044;27;20547;-59
2022/10/31 00:22:26;;;;;;;6.40;5.35;;;;;;;;;;5148296;27;20479;-59
2022/10/31 00:25:02;;;;;;;7.97;5.70;;;;;;;;;;5057669;27;20041;-59
2022/10/31 00:27:40;;;;;;;5.20;4.55;;;;;;;;;;5111143;27;20096;-59
2022/10/31 00:30:10;;;;;;;9.55;4.78;;;;;;;;;;5141848;27;20038;-59
2022/10/31 00:38:33;;;;;;;6.47;4.70;;;;;;;;;;5105300;28;20027;-59
2022/10/31 00:44:02;;;;;;;11.60;6.05;;;;;;;;;;5104943;28;20059;-59
2022/10/31 00:46:48;;;;;;;5.97;4.25;;;;;;;;;;5104930;28;20025;-59
2022/10/31 00:49:40;;;;;;;13.45;4.68;;;;;;;;;;5101906;28;20126;-59
2022/10/31 00:55:22;;;;;;;7.25;4.65;;;;;;;;;;5096354;28;20039;-59
2022/10/31 01:04:03;;;;;;;7.90;4.97;;;;;;;;;;5103213;28;20096;-59
2022/10/31 01:07:03;;;;;;;6.18;4.88;;;;;;;;;;5132469;27;20043;-59
2022/10/31 01:09:48;;;;;;;9.98;5.40;;;;;;;;;;5136097;27;20107;-59
2022/10/31 01:12:42;;;;;;;5.78;4.95;;;;;;;;;;5100613;27;20068;-59
2022/10/31 01:15:20;;;;;;;8.43;4.90;;;;;;;;;;5148234;27;20050;-58
2022/10/31 01:18:25;;;;;;;7.63;5.28;;;;;;;;;;5147870;27;20038;-59
2022/10/31 01:21:45;;;;;;;5.68;4.65;;;;;;;;;;5146870;27;20031;-59
2022/10/31 01:24:37;;;;;;;7.28;4.80;;;;;;;;;;5043718;28;20033;-59
2022/10/31 01:27:18;;;;;;;10.20;5.10;;;;;;;;;;5136837;27;20023;-59
2022/10/31 01:30:03;;;;;;;;;;;;;;;;;;;;;
2022/10/31 01:32:45;;;;;;;9.45;5.38;;;;;;;;;;5146410;27;20420;-59
2022/10/31 01:38:16;;;;;;;6.63;3.75;;;;;;;;;;5102355;27;20053;-59
2022/10/31 01:41:21;;;;;;;9.57;5.38;;;;;;;;;;5146794;27;20034;-59
2022/10/31 01:44:14;;;;;;;11.98;5.43;;;;;;;;;;5131581;27;20057;-59
2022/10/31 01:47:17;;;;;;;;;;;;;;;;;;;;;
2022/10/31 01:50:36;;;;;;;6.88;4.97;;;;;;;;;;5147237;27;20118;-59
2022/10/31 01:53:34;;;;;;;6.45;4.45;;;;;;;;;;5043980;28;20125;-59
2022/10/31 01:56:32;;;;;;;6.22;4.03;;;;;;;;;;5112021;27;20067;-59
2022/10/31 02:02:31;;;;;;;12.07;5.45;;;;;;;;;;5124386;27;20027;-59
2022/10/31 02:05:04;;;;;;;15.73;5.75;;;;;;;;;;5147292;27;20026;-59
2022/10/31 02:08:07;;;;;;;7.85;5.25;;;;;;;;;;5145939;27;20043;-59
2022/10/31 02:10:51;;;;;;;6.32;4.35;;;;;;;;;;5045920;28;20075;-59
2022/10/31 02:16:20;;;;;;;9.48;5.35;;;;;;;;;;5132266;27;20027;-59
2022/10/31 02:22:20;;;;;;;6.15;4.18;;;;;;;;;;5146578;27;20079;-57
2022/10/31 02:28:33;;;;;;;;;;;;;;;;;;;;;
2022/10/31 02:31:21;;;;;;;11.95;4.68;;;;;;;;;;5044752;28;20135;-59
2022/10/31 02:34:11;;;;;;;7.30;4.50;;;;;;;;;;5065881;28;20025;-59
2022/10/31 02:55:39;;;;;;;10.35;5.65;;;;;;;;;;5072490;28;20066;-59
2022/10/31 02:58:30;;;;;;;6.50;4.15;;;;;;;;;;5085825;27;20087;-58
2022/10/31 03:01:15;;;;;;;5.32;3.75;;;;;;;;;;5146254;27;20026;-59
2022/10/31 03:13:40;;;;;;;;;;;;;;;;;;4964008;29;20031;-59
2022/10/31 03:19:31;;;;;;;6.85;3.97;;;;;;;;;;5055127;28;20030;-59
2022/10/31 03:22:19;;;;;;;8.52;4.28;;;;;;;;;;5125316;28;20065;-59
2022/10/31 03:25:11;;;;;;;9.55;3.58;;;;;;;;;;5106590;28;20046;-59
2022/10/31 03:28:18;;;;;;;10.60;4.13;;;;;;;;;;5125004;28;20087;-59
2022/10/31 03:31:21;;;;;;;4.22;3.67;;;;;;;;;;5108300;28;20069;-59
2022/10/31 03:34:23;;;;;;;6.68;4.57;;;;;;;;;;5124807;28;20075;-59
2022/10/31 03:37:03;;;;;;;6.22;4.40;;;;;;;;;;5125727;28;20445;-59
2022/10/31 03:39:52;;;;;;;5.13;3.38;;;;;;;;;;5124521;28;20385;-59
2022/10/31 03:45:49;;;;;;;6.93;4.43;;;;;;;;;;5041967;28;20136;-59
2022/10/31 03:48:48;;;;;;;5.95;4.35;;;;;;;;;;5042737;28;20067;-59
2022/10/31 03:51:45;;;;;;;4.18;3.03;;;;;;;;;;5073450;28;20089;-58
2022/10/31 03:57:45;;;;;;;6.65;3.92;;;;;;;;;;5099836;28;20032;-59
2022/10/31 04:00:51;;;;;;;7.75;4.53;;;;;;;;;;5124658;28;20390;-59
2022/10/31 04:03:30;;;;;;;5.78;4.32;;;;;;;;;;5061509;28;20033;-59
2022/10/31 04:06:22;;;;;;;10.10;4.72;;;;;;;;;;5061688;28;20029;-59
2022/10/31 04:12:13;;;;;;;;;;;;;;;;;;;;;
2022/10/31 04:14:46;;;;;;;6.85;5.18;;;;;;;;;;5071356;28;20091;-58
2022/10/31 04:17:40;;;;;;;10.73;4.95;;;;;;;;;;5125534;28;20418;-59
2022/10/31 04:23:24;;;;;;;4.83;4.13;;;;;;;;;;5137621;28;20030;-58
2022/10/31 04:26:09;;;;;;;7.25;4.60;;;;;;;;;;5144495;28;20023;-59
2022/10/31 04:28:53;;;;;;;6.07;4.30;;;;;;;;;;5126424;28;20472;-59
2022/10/31 04:34:58;;;;;;;;;;;;;;;;;;;;;
2022/10/31 04:37:27;;;;;;;7.32;3.67;;;;;;;;;;5040066;28;20123;-59
2022/10/31 04:40:04;;;;;;;8.20;5.10;;;;;;;;;;5072620;28;20041;-59
2022/10/31 04:43:40;;;;;;;8.63;5.50;;;;;;;;;;5055603;28;20120;-59
2022/10/31 04:45:41;;;;;;;9.70;5.63;;;;;;;;;;5070785;28;20035;-59
2022/10/31 04:48:38;;;;;;;7.55;5.18;;;;;;;;;;5082036;28;20039;-57
2022/10/31 04:51:27;;;;;;;7.63;5.03;;;;;;;;;;5079218;28;20072;-59
2022/10/31 05:00:03;;;;;;;5.57;4.97;;;;;;;;;;5071437;28;20041;-59
2022/10/31 05:02:48;;;;;;;8.88;4.93;;;;;;;;;;5115373;28;20050;-59
2022/10/31 05:08:55;;;;;;;5.97;4.75;;;;;;;;;;5115478;27;20435;-59
2022/10/31 05:11:34;;;;;;;6.93;4.22;;;;;;;;;;5139318;27;20035;-59
2022/10/31 05:14:09;;;;;;;6.97;4.30;;;;;;;;;;5133121;27;20063;-58
2022/10/31 05:20:08;;;;;;;7.18;3.80;;;;;;;;;;5044314;27;20068;-59
2022/10/31 05:25:50;;;;;;;6.75;4.47;;;;;;;;;;5138135;27;20097;-58
2022/10/31 05:31:23;;;;;;;6.88;3.95;;;;;;;;;;5098442;27;20137;-58
2022/10/31 05:34:08;;;;;;;;;;;;;;;;;;;;;
2022/10/31 05:36:55;;;;;;;6.85;5.38;;;;;;;;;;5134107;27;20031;-57
2022/10/31 05:39:24;;;;;;;5.82;4.70;;;;;;;;;;5137879;27;20079;-59
2022/10/31 05:45:19;;;;;;;7.93;4.68;;;;;;;;;;5130755;27;20489;-59
2022/10/31 05:48:24;;;;;;;;;;;;;;;;;;;;;
2022/10/31 05:51:20;;;;;;;8.27;4.53;;;;;;;;;;5137437;27;20365;-59
2022/10/31 05:53:51;;;;;;;5.30;4.55;;;;;;;;;;5081556;27;20081;-59
2022/10/31 05:59:27;;;;;;;7.95;4.72;;;;;;;;;;5137594;27;20089;-58
2022/10/31 06:01:56;;;;;;;7.97;4.30;;;;;;;;;;5101303;27;20063;-59
2022/10/31 06:04:59;;;;;;;7.32;4.88;;;;;;;;;;5138234;27;20391;-58
2022/10/31 06:07:28;;;;;;;5.28;3.90;;;;;;;;;;5087518;27;20050;-59
2022/10/31 06:13:30;;;;;;;10.15;4.85;;;;;;;;;;5053503;28;20033;-59
2022/10/31 06:22:31;;;;;;;5.93;3.13;;;;;;;;;;5029136;28;20040;-58
2022/10/31 06:31:53;;;;;;;6.13;4.43;;;;;;;;;;5073359;28;20052;-59
2022/10/31 06:34:41;;;;;;;6.75;5.45;;;;;;;;;;5056132;28;20047;-58
2022/10/31 06:37:54;;;;;;;5.43;4.40;;;;;;;;;;5065160;28;20124;-58
2022/10/31 06:40:35;;;;;;;5.72;4.47;;;;;;;;;;5073962;28;20074;-58
2022/10/31 06:43:31;;;;;;;7.63;4.80;;;;;;;;;;5071946;28;20078;-58
2022/10/31 06:46:07;;;;;;;6.70;4.65;;;;;;;;;;5055612;28;20036;-57
2022/10/31 06:49:00;;;;;;;6.07;4.68;;;;;;;;;;5073186;28;20410;-58
2022/10/31 06:54:43;;;;;;;5.47;4.50;;;;;;;;;;5080326;27;20086;-58
2022/10/31 07:03:45;;;;;;;5.97;4.50;;;;;;;;;;5072274;27;20565;-57
2022/10/31 07:06:33;;;;;;;9.02;4.63;;;;;;;;;;5136926;27;20077;-58
2022/10/31 07:15:47;;;;;;;;;;;;;;;;;;;;;
2022/10/31 07:18:22;;;;;;;5.18;4.13;;;;;;;;;;5133722;27;20114;-58
2022/10/31 07:24:39;;;;;;;9.23;5.63;;;;;;;;;;5110607;27;20027;-58
2022/10/31 07:29:51;;;;;;;6.13;5.20;;;;;;;;;;5136448;27;20396;-58
2022/10/31 07:32:23;;;;;;;8.30;6.50;;;;;;;;;;5136186;27;20354;-58
2022/10/31 07:35:24;;;;;;;6.88;5.72;;;;;;;;;;5117073;27;20039;-59
2022/10/31 07:38:18;;;;;;;7.88;6.60;;;;;;;;;;5136882;27;20053;-58
2022/10/31 07:41:09;;;;;;;;;;;;;;;;;;;;;
2022/10/31 07:46:58;;;;;;;9.05;7.20;;;;;;;;;;5135000;27;20039;-58
2022/10/31 07:52:45;;;;;;;8.85;7.22;;;;;;;;;;5088382;28;20130;-58
2022/10/31 07:58:18;;;;;;;6.13;5.40;;;;;;;;;;5071634;28;20098;-58
2022/10/31 08:01:09;;;;;;;7.38;5.63;;;;;;;;;;5071429;28;20116;-58
2022/10/31 08:13:13;;;;;;;7.18;5.82;;;;;;;;;;5068350;28;20124;-58
2022/10/31 08:16:20;;;;;;;8.90;6.03;;;;;;;;;;5112565;28;20082;-58
2022/10/31 08:19:05;;;;;;;6.55;5.10;;;;;;;;;;5111608;28;20070;-58
2022/10/31 08:21:49;;;;;;;8.68;6.30;;;;;;;;;;5112219;28;20044;-58
2022/10/31 08:27:22;;;;;;;7.25;5.18;;;;;;;;;;5113164;28;20035;-58
2022/10/31 08:30:20;;;;;;;7.43;5.47;;;;;;;;;;5114848;28;20031;-58
2022/10/31 08:33:14;;;;;;;9.15;6.13;;;;;;;;;;5115047;28;20086;-58
2022/10/31 08:36:08;;;;;;;7.43;5.93;;;;;;;;;;5114869;28;20020;-58
2022/10/31 08:38:46;;;;;;;7.28;5.78;;;;;;;;;;5111533;28;20485;-58
2022/10/31 08:41:27;;;;;;;8.90;6.72;;;;;;;;;;5098184;28;20067;-58
2022/10/31 08:44:10;;;;;;;8.82;6.05;;;;;;;;;;5114402;28;20481;-58
2022/10/31 08:50:15;;;;;;;8.63;5.22;;;;;;;;;;5118326;28;20038;-58
2022/10/31 08:53:07;;;;;;;7.03;5.18;;;;;;;;;;5099811;28;20024;-58
2022/10/31 08:56:08;;;;;;;8.85;6.18;;;;;;;;;;5068914;28;20032;-59
2022/10/31 08:58:51;;;;;;;8.15;5.85;;;;;;;;;;5099751;28;20047;-58
2022/10/31 09:01:28;;;;;;;7.25;4.50;;;;;;;;;;5117098;28;20034;-59
2022/10/31 09:04:19;;;;;;;8.07;5.53;;;;;;;;;;5082391;28;20036;-59
2022/10/31 09:07:12;;;;;;;8.30;5.30;;;;;;;;;;5099983;28;20106;-58
2022/10/31 09:09:47;;;;;;;8.20;4.95;;;;;;;;;;5126861;27;20043;-58
2022/10/31 09:12:45;;;;;;;8.40;5.57;;;;;;;;;;5138127;27;20023;-59
2022/10/31 09:21:43;;;;;;;7.75;5.47;;;;;;;;;;4987411;28;20142;-58
2022/10/31 09:24:37;;;;;;;10.30;5.85;;;;;;;;;;4996120;28;20490;-59
2022/10/31 09:27:32;;;;;;;7.60;4.75;;;;;;;;;;5012606;28;20029;-58
2022/10/31 09:33:07;;;;;;;6.50;4.88;;;;;;;;;;5035047;28;20518;-59
2022/10/31 09:39:04;;;;;;;8.13;5.22;;;;;;;;;;5125392;27;20385;-59
2022/10/31 09:41:43;;;;;;;6.80;5.03;;;;;;;;;;5139163;27;20023;-59
2022/10/31 09:44:28;;;;;;;10.38;5.85;;;;;;;;;;5138111;27;20031;-59
2022/10/31 09:50:20;;;;;;;9.88;6.60;;;;;;;;;;5094932;28;20043;-60
2022/10/31 09:56:23;;;;;;;6.13;5.25;;;;;;;;;;5044907;28;20036;-59
2022/10/31 09:59:14;;;;;;;7.20;4.95;;;;;;;;;;5091504;28;20108;-59
2022/10/31 10:01:53;;;;;;;8.05;5.65;;;;;;;;;;5099704;28;20039;-58
2022/10/31 10:04:25;;;;;;;9.18;4.78;;;;;;;;;;5093916;28;20109;-58
2022/10/31 10:10:27;;;;;;;7.78;5.22;;;;;;;;;;5005305;28;20428;-59
2022/10/31 10:13:28;;;;;;;;;;;;;;;;;;;;;
2022/10/31 10:19:17;;;;;;;8.60;5.05;;;;;;;;;;5128552;27;19917;-59
2022/10/31 10:22:17;;;;;;;17.48;5.15;;;;;;;;;;5033587;28;20109;-59
2022/10/31 10:25:06;;;;;;;6.47;5.23;;;;;;;;;;5137723;27;20019;-59
2022/10/31 10:31:37;;;;;;;10.00;5.75;;;;;;;;;;5136565;27;20061;-59
2022/10/31 10:34:27;;;;;;;5.47;4.78;;;;;;;;;;5118666;27;20031;-59
2022/10/31 10:37:08;;;;;;;8.57;5.33;;;;;;;;;;5132447;27;20461;-58
2022/10/31 10:39:55;;;;;;;6.78;5.32;;;;;;;;;;5136644;27;20372;-59
2022/10/31 10:48:38;;;;;;;7.93;5.18;;;;;;;;;;5121940;27;20027;-59
2022/10/31 10:51:14;;;;;;;5.82;5.13;;;;;;;;;;5136791;27;20122;-58
2022/10/31 10:54:13;;;;;;;7.18;5.28;;;;;;;;;;5136904;27;20464;-58
2022/10/31 10:56:59;;;;;;;;;;;;;;;;;;;;;
2022/10/31 10:59:34;;;;;;;9.32;5.10;;;;;;;;;;5130578;27;20039;-59
2022/10/31 11:02:30;;;;;;;8.05;5.50;;;;;;;;;;5133317;27;20485;-59
2022/10/31 11:05:27;;;;;;;9.98;4.95;;;;;;;;;;5136705;27;20076;-59
2022/10/31 11:08:01;;;;;;;7.65;4.55;;;;;;;;;;5136026;27;20095;-58
2022/10/31 11:13:41;;;;;;;8.98;5.63;;;;;;;;;;5135576;27;20115;-59
2022/10/31 11:16:28;;;;;;;14.20;6.00;;;;;;;;;;5100169;27;20038;-59
2022/10/31 11:22:26;;;;;;;7.50;5.05;;;;;;;;;;5124572;27;20160;-59
2022/10/31 11:28:07;;;;;;;12.73;6.28;;;;;;;;;;5135707;27;20039;-59
2022/10/31 11:33:50;;;;;;;18.20;6.82;;;;;;;;;;5093105;27;20031;-59
2022/10/31 11:36:35;;;;;;;9.15;5.68;;;;;;;;;;5115201;27;20085;-59
2022/10/31 11:42:41;;;;;;;5.22;3.53;;;;;;;;;;5106416;27;20031;-59
2022/10/31 11:45:29;;;;;;;15.40;4.65;;;;;;;;;;5120245;27;20503;-59
2022/10/31 11:48:16;;;;;;;7.03;4.18;;;;;;;;;;5136538;27;20015;-59
2022/10/31 11:53:56;;;;;;;7.97;4.30;;;;;;;;;;5121796;27;20030;-59
2022/10/31 11:56:44;;;;;;;6.10;4.70;;;;;;;;;;5115584;27;20480;-59
2022/10/31 11:59:29;;;;;;;7.53;5.47;;;;;;;;;;5135908;27;20129;-59
2022/10/31 12:02:13;;;;;;;5.85;5.25;;;;;;;;;;5133374;27;20169;-59
2022/10/31 12:05:46;;;;;;;;;;;;;;;;;;;;;
2022/10/31 12:08:26;;;;;;;14.57;6.38;;;;;;;;;;5029209;28;20021;-58
2022/10/31 12:17:27;;;;;;;6.90;4.63;;;;;;;;;;5140446;27;20031;-58
2022/10/31 12:20:14;;;;;;;6.88;5.03;;;;;;;;;;5142042;27;20058;-58
2022/10/31 12:23:04;;;;;;;4.68;3.80;;;;;;;;;;5139353;27;20114;-58
2022/10/31 12:25:40;;;;;;;;;;;;;;;;;;5135890;27;20365;-58
2022/10/31 12:28:33;;;;;;;6.93;5.20;;;;;;;;;;5139100;27;20409;-58
2022/10/31 12:31:21;;;;;;;9.90;4.57;;;;;;;;;;5120862;27;20476;-58
2022/10/31 12:36:55;;;;;;;8.63;5.10;;;;;;;;;;5138716;27;20023;-58
2022/10/31 12:39:57;;;;;;;14.65;5.18;;;;;;;;;;5138321;27;20034;-58
2022/10/31 12:42:36;;;;;;;;;;;;;;;;;;;;;
2022/10/31 12:45:37;;;;;;;6.60;4.60;;;;;;;;;;5138855;27;20461;-58
2022/10/31 12:48:40;;;;;;;7.57;5.18;;;;;;;;;;5087607;27;20023;-58
2022/10/31 12:51:39;;;;;;;5.90;4.38;;;;;;;;;;5138653;27;20023;-58
2022/10/31 12:54:20;;;;;;;7.50;4.80;;;;;;;;;;5138800;27;20023;-58
2022/10/31 12:57:15;;;;;;;5.20;4.05;;;;;;;;;;5118608;27;20031;-58
2022/10/31 13:03:09;;;;;;;8.30;5.22;;;;;;;;;;5026773;28;20072;-58
2022/10/31 13:05:56;;;;;;;7.97;5.00;;;;;;;;;;5114308;27;20126;-58
2022/10/31 13:08:51;;;;;;;7.65;5.10;;;;;;;;;;5135844;27;20036;-58
2022/10/31 13:15:00;;;;;;;7.32;4.38;;;;;;;;;;5123471;27;20175;-58
2022/10/31 13:17:54;;;;;;;5.35;4.63;;;;;;;;;;5017906;28;20489;-58
2022/10/31 13:23:36;;;;;;;6.90;4.57;;;;;;;;;;5131351;27;20417;-58
2022/10/31 13:30:29;;;;;;;10.27;4.70;;;;;;;;;;5034596;28;20040;-58
2022/10/31 13:36:27;;;;;;;5.50;4.13;;;;;;;;;;5054418;28;20557;-58
2022/10/31 13:39:37;;;;;;;13.90;5.80;;;;;;;;;;5054890;28;20607;-58
2022/10/31 13:45:33;;;;;;;;;;;;;;;;;;;;;
2022/10/31 13:48:01;;;;;;;14.77;7.03;;;;;;;;;;5053776;28;20025;-58
2022/10/31 13:50:54;;;;;;;11.88;5.00;;;;;;;;;;5094519;27;20073;-58
2022/10/31 13:57:07;;;;;;;7.68;3.65;;;;;;;;;;5031359;28;20089;-57
2022/10/31 14:00:13;;;;;;;8.38;4.65;;;;;;;;;;5137887;27;20023;-59
2022/10/31 14:03:13;;;;;;;9.90;4.47;;;;;;;;;;5116682;27;20117;-59
2022/10/31 14:08:59;;;;;;;7.57;4.85;;;;;;;;;;5091523;27;20380;-59
2022/10/31 14:12:02;;;;;;;6.57;4.07;;;;;;;;;;5136378;27;20058;-59
2022/10/31 14:14:56;;;;;;;5.13;4.38;;;;;;;;;;5119236;27;20031;-57
2022/10/31 14:18:01;;;;;;;8.77;4.80;;;;;;;;;;5137952;27;20491;-58
2022/10/31 14:24:14;;;;;;;5.85;4.15;;;;;;;;;;5044256;27;20081;-59
2022/10/31 14:27:08;;;;;;;;;;;;;;;;;;;;;
2022/10/31 14:29:47;;;;;;;6.95;3.67;;;;;;;;;;5131833;27;20037;-58
2022/10/31 14:35:20;;;;;;;7.65;3.83;;;;;;;;;;5083636;27;20092;-58
2022/10/31 14:38:20;;;;;;;;;;;;;;;;;;;;;
2022/10/31 14:41:00;;;;;;;13.05;5.55;;;;;;;;;;5133208;27;20038;-58
2022/10/31 14:43:30;;;;;;;9.05;3.60;;;;;;;;;;5136162;27;20106;-58
2022/10/31 14:49:13;;;;;;;8.20;4.03;;;;;;;;;;5136001;27;20038;-58
2022/10/31 14:52:25;;;;;;;;;;;;;;;;;;;;;
2022/10/31 14:55:12;;;;;;;8.57;3.88;;;;;;;;;;5032219;28;20503;-58
2022/10/31 14:58:02;;;;;;;5.75;3.42;;;;;;;;;;5135073;27;20038;-58
2022/10/31 15:00:40;;;;;;;6.53;2.90;;;;;;;;;;5135723;27;20027;-58
2022/10/31 15:03:37;;;;;;;;;;;;;;;;;;;;;
2022/10/31 15:06:23;;;;;;;7.97;5.47;;;;;;;;;;5131001;27;20037;-58
2022/10/31 15:12:31;;;;;;;5.03;4.20;;;;;;;;;;5135745;27;20116;-58
2022/10/31 15:18:29;;;;;;;8.98;4.60;;;;;;;;;;5124925;27;20034;-58
2022/10/31 15:21:16;;;;;;;;;;;;;;;;;;;;;
2022/10/31 15:24:08;;;;;;;5.45;3.00;;;;;;;;;;5130155;27;20352;-58
2022/10/31 15:27:02;;;;;;;;;;;;;;;;;;;;;
2022/10/31 15:29:34;;;;;;;8.85;4.25;;;;;;;;;;5130312;27;20043;-58
2022/10/31 15:35:30;;;;;;;6.78;3.78;;;;;;;;;;5046176;28;20040;-58
2022/10/31 15:38:32;;;;;;;8.80;4.35;;;;;;;;;;5052356;28;20108;-58
2022/10/31 15:41:36;;;;;;;;;;;;;;;;;;;;;
2022/10/31 15:44:27;;;;;;;;;;;;;;;;;;;;;
2022/10/31 15:47:31;;;;;;;;;;;;;;;;;;;;;
2022/10/31 15:50:12;;;;;;;10.52;4.63;;;;;;;;;;5135210;27;20038;-58
2022/10/31 15:56:18;;;;;;;7.75;4.45;;;;;;;;;;5051694;28;20502;-58
2022/10/31 15:59:04;;;;;;;12.95;4.97;;;;;;;;;;5041428;28;20046;-58
2022/10/31 16:04:54;;;;;;;9.00;5.55;;;;;;;;;;5100137;28;20030;-59
2022/10/31 16:07:39;;;;;;;9.68;4.97;;;;;;;;;;5136233;28;20052;-58
2022/10/31 16:13:21;;;;;;;6.13;4.57;;;;;;;;;;5133411;27;20391;-58
2022/10/31 16:18:51;;;;;;;7.57;4.70;;;;;;;;;;5120557;28;20485;-58
2022/10/31 16:21:56;;;;;;;10.60;5.93;;;;;;;;;;5135479;28;20047;-58
2022/10/31 16:24:35;;;;;;;7.00;4.65;;;;;;;;;;5126514;28;20043;-58
2022/10/31 16:27:36;;;;;;;7.25;5.13;;;;;;;;;;5092538;28;20162;-58
2022/10/31 16:30:29;;;;;;;12.20;5.90;;;;;;;;;;5091898;28;20088;-58
2022/10/31 16:33:17;;;;;;;7.45;4.75;;;;;;;;;;5075573;28;20470;-58
2022/10/31 16:36:02;;;;;;;;;;;;;;;;;;;;;
2022/10/31 16:38:37;;;;;;;9.73;5.82;;;;;;;;;;5086791;28;20665;-58
2022/10/31 16:41:09;;;;;;;9.00;5.93;;;;;;;;;;5059249;28;20476;-58
2022/10/31 16:44:07;;;;;;;8.90;4.68;;;;;;;;;;5091922;28;20028;-58
2022/10/31 16:46:57;;;;;;;18.20;5.97;;;;;;;;;;5077068;28;20040;-58
2022/10/31 16:49:46;;;;;;;8.73;6.15;;;;;;;;;;5092487;28;20063;-58
2022/10/31 16:52:32;;;;;;;8.10;5.82;;;;;;;;;;5092130;28;20035;-58
2022/10/31 16:55:27;;;;;;;10.98;5.38;;;;;;;;;;5061945;28;20113;-58
2022/10/31 16:58:17;;;;;;;;;;;;;;;;;;;;;
2022/10/31 17:04:00;;;;;;;11.93;9.57;;;;;;;;;;5098557;27;20035;-58
2022/10/31 17:06:38;;;;;;;10.20;8.60;;;;;;;;;;5120615;27;20049;-58
2022/10/31 17:12:24;;;;;;;9.40;6.40;;;;;;;;;;5138165;27;20044;-58
2022/10/31 17:15:10;;;;;;;11.52;6.53;;;;;;;;;;5095518;27;20058;-58
2022/10/31 17:21:06;;;;;;;10.82;8.35;;;;;;;;;;5138224;27;20118;-58
2022/10/31 17:26:56;;;;;;;21.05;14.15;;;;;;;;;;5114992;27;20110;-58
2022/10/31 17:29:43;;;;;;;23.50;15.85;;;;;;;;;;5118286;27;20477;-58
2022/10/31 17:32:16;;;;;;;17.35;14.07;;;;;;;;;;5137661;27;20096;-58
2022/10/31 17:37:51;;;;;;;25.83;18.13;;;;;;;;;;5102734;27;20084;-58
2022/10/31 17:41:01;;;;;;;;;;;;;;;;;;;;;
2022/10/31 17:43:45;;;;;;;17.33;12.88;;;;;;;;;;5131843;27;20439;-58
2022/10/31 17:46:28;;;;;;;19.08;10.32;;;;;;;;;;5119795;27;20023;-58
2022/10/31 17:49:07;;;;;;;11.32;9.55;;;;;;;;;;5137704;27;20514;-58
2022/10/31 17:51:34;;;;;;;15.75;8.63;;;;;;;;;;5084470;27;20423;-58
2022/10/31 17:54:24;;;;;;;11.13;7.43;;;;;;;;;;5137874;27;20452;-58
2022/10/31 17:57:21;;;;;;;12.82;8.43;;;;;;;;;;5137392;27;20518;-58
2022/10/31 17:59:56;;;;;;;10.90;7.28;;;;;;;;;;5123896;27;20038;-58
2022/10/31 18:02:38;;;;;;;10.13;7.97;;;;;;;;;;5137417;27;20032;-58
2022/10/31 18:05:26;;;;;;;11.98;9.85;;;;;;;;;;5138163;27;20023;-58
2022/10/31 18:08:06;;;;;;;11.02;8.63;;;;;;;;;;5138154;27;20095;-58
2022/10/31 18:14:01;;;;;;;13.40;8.65;;;;;;;;;;5099056;27;20078;-58
2022/10/31 18:16:45;;;;;;;13.32;10.15;;;;;;;;;;5083610;27;20485;-58
2022/10/31 18:19:49;;;;;;;11.43;9.00;;;;;;;;;;5137206;27;20015;-58
2022/10/31 18:22:57;;;;;;;12.00;9.13;;;;;;;;;;5136892;27;20099;-58
2022/10/31 18:25:38;;;;;;;13.00;8.10;;;;;;;;;;5117928;27;20469;-58
2022/10/31 18:31:40;;;;;;;10.25;7.63;;;;;;;;;;5137568;27;20118;-58
2022/10/31 18:34:24;;;;;;;16.60;9.13;;;;;;;;;;5133853;27;20404;-58
2022/10/31 18:36:53;;;;;;;9.18;7.45;;;;;;;;;;5137009;27;20019;-58
2022/10/31 18:42:37;;;;;;;10.43;7.85;;;;;;;;;;5137665;27;20031;-58
2022/10/31 18:51:27;;;;;;;15.35;8.05;;;;;;;;;;5136616;27;20076;-58
2022/10/31 18:53:57;;;;;;;7.15;6.38;;;;;;;;;;5134808;27;20504;-58
2022/10/31 18:56:30;;;;;;;16.47;8.00;;;;;;;;;;5137609;27;20023;-58
2022/10/31 18:59:35;;;;;;;11.32;7.65;;;;;;;;;;5137232;27;20055;-58
2022/10/31 19:02:13;;;;;;;10.13;7.25;;;;;;;;;;5136924;27;20045;-58
2022/10/31 19:05:08;;;;;;;;;;;;;;;;;;;;;
2022/10/31 19:08:05;;;;;;;;;;;;;;;;;;;;;
2022/10/31 19:11:23;;;;;;;10.75;7.97;;;;;;;;;;5110876;27;20048;-58
2022/10/31 19:13:44;;;;;;;;;;;;;;;;;;5132206;27;20053;-58
2022/10/31 19:16:28;;;;;;;11.40;7.80;;;;;;;;;;5122952;27;19921;-58
2022/10/31 19:19:01;;;;;;;14.68;8.13;;;;;;;;;;5135916;27;20038;-58
2022/10/31 19:25:06;;;;;;;10.25;8.57;;;;;;;;;;5092414;27;20027;-58
2022/10/31 19:27:39;;;;;;;11.05;8.27;;;;;;;;;;5118146;27;20452;-58
2022/10/31 19:33:39;;;;;;;17.15;8.32;;;;;;;;;;5136284;27;20038;-58
2022/10/31 19:39:39;;;;;;;11.57;8.05;;;;;;;;;;5127797;27;20167;-59
2022/10/31 19:42:13;;;;;;;10.73;8.00;;;;;;;;;;5116125;27;20034;-57
2022/10/31 19:45:13;;;;;;;13.65;8.07;;;;;;;;;;5135924;27;20110;-59
2022/10/31 19:48:14;;;;;;;9.98;7.10;;;;;;;;;;5135344;27;20031;-59
2022/10/31 19:50:55;;;;;;;8.90;7.10;;;;;;;;;;5081159;27;20415;-58
2022/10/31 19:53:36;;;;;;;12.35;7.75;;;;;;;;;;5118741;27;20541;-58
2022/10/31 19:56:22;;;;;;;12.77;7.97;;;;;;;;;;5135112;27;20031;-59
2022/10/31 20:02:04;;;;;;;11.40;9.38;;;;;;;;;;5130737;27;20073;-58
2022/10/31 20:07:57;;;;;;;11.70;7.07;;;;;;;;;;5135375;28;20477;-58
2022/10/31 20:10:47;;;;;;;14.40;7.28;;;;;;;;;;5135858;28;20402;-59
2022/10/31 20:13:42;;;;;;;9.35;6.68;;;;;;;;;;5099030;28;20492;-59
2022/10/31 20:16:16;;;;;;;9.38;6.93;;;;;;;;;;5031469;28;20092;-58
2022/10/31 20:19:12;;;;;;;9.25;6.28;;;;;;;;;;5000249;28;20041;-58
2022/10/31 20:28:17;;;;;;;12.43;7.50;;;;;;;;;;5114220;28;20043;-58
2022/10/31 20:30:59;;;;;;;6.95;5.85;;;;;;;;;;5114883;28;20458;-58
2022/10/31 20:33:39;;;;;;;11.00;7.18;;;;;;;;;;5114734;28;20039;-58
2022/10/31 20:36:43;;;;;;;11.63;7.13;;;;;;;;;;5116528;28;20034;-58
2022/10/31 20:39:09;;;;;;;8.30;6.38;;;;;;;;;;5015674;28;20771;-58
2022/10/31 20:42:27;;;;;;;;;;;;;;;;;;;;;
2022/10/31 20:45:14;;;;;;;11.20;6.63;;;;;;;;;;4951374;28;20048;-59
2022/10/31 20:51:03;;;;;;;;;;;;;;;;;;5093839;28;20088;-58
2022/10/31 20:56:55;;;;;;;6.43;5.75;;;;;;;;;;5119155;28;20533;-58
2022/10/31 20:59:31;;;;;;;11.20;7.28;;;;;;;;;;5100753;28;20028;-58
2022/10/31 21:02:09;;;;;;;20.50;15.35;;;;;;;;;;5096562;28;20032;-58
2022/10/31 21:04:40;;;;;;;16.63;12.95;;;;;;;;;;5082529;28;20027;-58
2022/10/31 21:07:22;;;;;;;;;;;;;;;;;;;;;
2022/10/31 21:10:31;;;;;;;;;;;;;;;;;;;;;
2022/10/31 21:15:42;;;;;;;9.98;7.78;;;;;;;;;;5126536;27;20147;-58
2022/10/31 21:18:32;;;;;;;13.50;6.72;;;;;;;;;;5104711;27;20043;-58
2022/10/31 21:24:19;;;;;;;;;;;;;;;;;;;;;
2022/10/31 21:26:56;;;;;;;18.70;6.88;;;;;;;;;;5136397;27;19998;-59
2022/10/31 21:32:24;;;;;;;11.15;6.60;;;;;;;;;;5133587;27;20444;-58
2022/10/31 21:35:03;;;;;;;11.45;6.95;;;;;;;;;;5125523;27;20043;-58
2022/10/31 21:38:16;;;;;;;10.10;7.07;;;;;;;;;;5138681;27;20054;-58
2022/10/31 21:47:33;;;;;;;7.85;6.82;;;;;;;;;;5053607;28;20155;-60
2022/10/31 21:50:27;;;;;;;7.28;6.57;;;;;;;;;;5038117;28;20081;-58
2022/10/31 21:56:21;;;;;;;13.07;7.47;;;;;;;;;;5054789;28;20037;-58
2022/10/31 21:59:21;;;;;;;6.35;5.72;;;;;;;;;;5038133;28;20063;-59
2022/10/31 22:05:12;;;;;;;8.23;6.90;;;;;;;;;;5150958;27;20038;-58
2022/10/31 22:10:35;;;;;;;11.95;7.20;;;;;;;;;;5151248;27;20070;-58
2022/10/31 22:13:34;;;;;;;9.07;7.07;;;;;;;;;;5115058;27;20074;-59
2022/10/31 22:16:29;;;;;;;8.77;6.40;;;;;;;;;;5045156;27;20110;-59
2022/10/31 22:19:23;;;;;;;8.52;6.15;;;;;;;;;;5142268;27;20065;-58
2022/10/31 22:25:45;;;;;;;9.63;6.07;;;;;;;;;;5027886;28;20029;-58
2022/10/31 22:28:23;;;;;;;8.77;5.85;;;;;;;;;;5011747;28;20040;-59
2022/10/31 22:31:08;;;;;;;9.77;5.22;;;;;;;;;;5140368;27;20047;-58
2022/10/31 22:34:22;;;;;;;;;;;;;;;;;;;;;
2022/10/31 22:36:58;;;;;;;17.27;7.97;;;;;;;;;;5047629;28;20076;-58
2022/10/31 22:39:56;;;;;;;8.93;7.93;;;;;;;;;;5047838;28;20056;-58
2022/10/31 22:42:32;;;;;;;15.25;7.95;;;;;;;;;;5150800;27;20031;-59
2022/10/31 22:45:17;;;;;;;13.02;9.30;;;;;;;;;;5148092;27;20039;-58
2022/10/31 22:48:10;;;;;;;;;;;;;;;;;;;;;
2022/10/31 22:50:56;;;;;;;12.13;7.10;;;;;;;;;;5134196;27;20098;-58
2022/10/31 22:53:57;;;;;;;10.55;6.63;;;;;;;;;;5109453;27;20054;-59
2022/10/31 22:56:39;;;;;;;;;;;;;;;;;;;;;
2022/10/31 22:59:14;;;;;;;;;;;;;;;;;;5081487;27;20058;-59
2022/10/31 23:04:59;;;;;;;8.75;6.05;;;;;;;;;;5047127;28;20041;-59
2022/10/31 23:10:42;;;;;;;9.95;6.22;;;;;;;;;;5150424;27;20071;-59
2022/10/31 23:16:31;;;;;;;8.07;4.85;;;;;;;;;;5149691;27;20176;-59
2022/10/31 23:22:06;;;;;;;8.45;4.90;;;;;;;;;;5138423;27;20039;-59
2022/10/31 23:28:02;;;;;;;;;;;;;;;;;;;;;
2022/10/31 23:31:05;;;;;;;6.22;5.25;;;;;;;;;;5150304;27;20077;-58
2022/10/31 23:33:38;;;;;;;11.77;5.95;;;;;;;;;;5150516;27;20410;-58
2022/10/31 23:36:43;;;;;;;11.07;6.38;;;;;;;;;;5150987;27;20485;-58
2022/10/31 23:39:42;;;;;;;6.63;5.18;;;;;;;;;;5150833;27;20026;-58
2022/10/31 23:42:25;;;;;;;7.65;5.65;;;;;;;;;;5149673;27;20023;-58
2022/10/31 23:48:26;;;;;;;7.47;6.38;;;;;;;;;;5066596;28;20097;-58
2022/10/31 23:51:20;;;;;;;7.63;6.20;;;;;;;;;;5066966;28;20041;-59
2022/10/31 23:53:58;;;;;;;11.38;6.55;;;;;;;;;;5047095;28;20464;-59
2022/10/31 23:56:41;;;;;;;11.80;7.15;;;;;;;;;;5049609;28;20091;-59
2022/10/31 23:59:27;;;;;;;8.25;6.60;;;;;;;;;;5066162;28;20029;-59
